sensor_id;sensor_type;location;lat;lon;timestamp;pressure;altitude;pressure_sealevel;temperature;humidity
46430;BME280;32131;53.454;-6.180;2023-07-31T00:00:12;100082.59;;;16.88;100.00
46430;BME280;32131;53.454;-6.180;2023-07-31T00:02:42;100083.53;;;16.86;100.00
46430;BME280;32131;53.454;-6.180;2023-07-31T00:05:10;100089.59;;;16.86;100.00
46430;BME280;32131;53.454;-6.180;2023-07-31T00:07:39;100089.56;;;16.88;100.00
46430;BME280;32131;53.454;-6.180;2023-07-31T00:10:07;100087.81;;;16.88;100.00
46430;BME280;32131;53.454;-6.180;2023-07-31T00:12:37;100090.38;;;16.90;100.00
46430;BME280;32131;53.454;-6.180;2023-07-31T00:15:06;100075.63;;;16.90;100.00
46430;BME280;32131;53.454;-6.180;2023-07-31T00:17:34;100069.50;;;16.91;100.00
46430;BME280;32131;53.454;-6.180;2023-07-31T00:20:05;100079.94;;;16.93;100.00
46430;BME280;32131;53.454;-6.180;2023-07-31T00:22:33;100075.56;;;16.93;100.00
46430;BME280;32131;53.454;-6.180;2023-07-31T00:25:03;100070.38;;;16.92;100.00
46430;BME280;32131;53.454;-6.180;2023-07-31T00:27:33;100060.88;;;16.89;100.00
46430;BME280;32131;53.454;-6.180;2023-07-31T00:30:01;100064.34;;;16.88;100.00
46430;BME280;32131;53.454;-6.180;2023-07-31T00:32:30;100066.09;;;16.88;100.00
46430;BME280;32131;53.454;-6.180;2023-07-31T00:34:58;100072.22;;;16.85;100.00
46430;BME280;32131;53.454;-6.180;2023-07-31T00:37:27;100067.00;;;16.85;100.00
46430;BME280;32131;53.454;-6.180;2023-07-31T00:39:55;100058.41;;;16.81;100.00
46430;BME280;32131;53.454;-6.180;2023-07-31T00:42:24;100067.16;;;16.79;100.00
46430;BME280;32131;53.454;-6.180;2023-07-31T00:44:52;100074.19;;;16.75;100.00
46430;BME280;32131;53.454;-6.180;2023-07-31T00:47:20;100074.28;;;16.71;100.00
46430;BME280;32131;53.454;-6.180;2023-07-31T00:49:50;100068.31;;;16.65;100.00
46430;BME280;32131;53.454;-6.180;2023-07-31T00:52:19;100077.09;;;16.60;100.00
46430;BME280;32131;53.454;-6.180;2023-07-31T00:54:50;100067.66;;;16.54;100.00
46430;BME280;32131;53.454;-6.180;2023-07-31T00:57:18;100070.34;;;16.49;100.00
46430;BME280;32131;53.454;-6.180;2023-07-31T00:59:46;100068.66;;;16.47;100.00
46430;BME280;32131;53.454;-6.180;2023-07-31T01:02:15;100078.25;;;16.45;100.00
46430;BME280;32131;53.454;-6.180;2023-07-31T01:04:44;100071.38;;;16.42;100.00
46430;BME280;32131;53.454;-6.180;2023-07-31T01:07:20;100074.06;;;16.38;100.00
46430;BME280;32131;53.454;-6.180;2023-07-31T01:09:56;100075.78;;;16.39;100.00
46430;BME280;32131;53.454;-6.180;2023-07-31T01:12:28;100068.81;;;16.41;100.00
46430;BME280;32131;53.454;-6.180;2023-07-31T01:15:08;100069.66;;;16.41;100.00
46430;BME280;32131;53.454;-6.180;2023-07-31T01:17:38;100067.88;;;16.42;100.00
46430;BME280;32131;53.454;-6.180;2023-07-31T01:20:10;100066.19;;;16.41;100.00
46430;BME280;32131;53.454;-6.180;2023-07-31T01:22:54;100060.06;;;16.42;100.00
46430;BME280;32131;53.454;-6.180;2023-07-31T01:25:47;100064.47;;;16.40;100.00
46430;BME280;32131;53.454;-6.180;2023-07-31T01:28:20;100061.88;;;16.38;100.00
46430;BME280;32131;53.454;-6.180;2023-07-31T01:30:51;100064.56;;;16.33;100.00
46430;BME280;32131;53.454;-6.180;2023-07-31T01:33:22;100057.66;;;16.32;100.00
46430;BME280;32131;53.454;-6.180;2023-07-31T01:35:51;100062.03;;;16.30;100.00
46430;BME280;32131;53.454;-6.180;2023-07-31T01:38:20;100049.94;;;16.28;100.00
46430;BME280;32131;53.454;-6.180;2023-07-31T01:40:52;100053.47;;;16.24;100.00
46430;BME280;32131;53.454;-6.180;2023-07-31T01:43:21;100052.63;;;16.23;100.00
46430;BME280;32131;53.454;-6.180;2023-07-31T01:45:50;100045.75;;;16.19;100.00
46430;BME280;32131;53.454;-6.180;2023-07-31T01:48:18;100052.72;;;16.17;100.00
46430;BME280;32131;53.454;-6.180;2023-07-31T01:50:46;100054.44;;;16.18;100.00
46430;BME280;32131;53.454;-6.180;2023-07-31T01:53:14;100060.50;;;16.20;100.00
46430;BME280;32131;53.454;-6.180;2023-07-31T01:55:43;100058.72;;;16.21;100.00
46430;BME280;32131;53.454;-6.180;2023-07-31T01:58:12;100067.38;;;16.23;100.00
46430;BME280;32131;53.454;-6.180;2023-07-31T02:00:41;100056.13;;;16.22;100.00
46430;BME280;32131;53.454;-6.180;2023-07-31T02:03:09;100063.06;;;16.23;100.00
46430;BME280;32131;53.454;-6.180;2023-07-31T02:05:44;100058.69;;;16.24;100.00
46430;BME280;32131;53.454;-6.180;2023-07-31T02:08:12;100056.13;;;16.22;100.00
46430;BME280;32131;53.454;-6.180;2023-07-31T02:10:41;100056.13;;;16.21;100.00
46430;BME280;32131;53.454;-6.180;2023-07-31T02:13:09;100052.72;;;16.17;100.00
46430;BME280;32131;53.454;-6.180;2023-07-31T02:15:39;100061.50;;;16.13;100.00
46430;BME280;32131;53.454;-6.180;2023-07-31T02:18:07;100053.75;;;16.08;100.00
46430;BME280;32131;53.454;-6.180;2023-07-31T02:20:35;100053.81;;;16.05;100.00
46430;BME280;32131;53.454;-6.180;2023-07-31T02:23:03;100048.72;;;15.99;100.00
46430;BME280;32131;53.454;-6.180;2023-07-31T02:25:31;100049.63;;;15.96;100.00
46430;BME280;32131;53.454;-6.180;2023-07-31T02:27:59;100051.38;;;15.97;100.00
46430;BME280;32131;53.454;-6.180;2023-07-31T02:30:27;100044.34;;;15.99;100.00
46430;BME280;32131;53.454;-6.180;2023-07-31T02:32:57;100045.19;;;16.03;100.00
46430;BME280;32131;53.454;-6.180;2023-07-31T02:35:24;100045.13;;;16.06;100.00
46430;BME280;32131;53.454;-6.180;2023-07-31T02:37:53;100045.91;;;16.10;100.00
46430;BME280;32131;53.454;-6.180;2023-07-31T02:40:21;100038.94;;;16.12;100.00
46430;BME280;32131;53.454;-6.180;2023-07-31T02:42:50;100038.91;;;16.13;100.00
46430;BME280;32131;53.454;-6.180;2023-07-31T02:45:18;100041.50;;;16.15;100.00
46430;BME280;32131;53.454;-6.180;2023-07-31T02:47:46;100041.41;;;16.18;100.00
46430;BME280;32131;53.454;-6.180;2023-07-31T02:50:16;100049.22;;;16.18;100.00
46430;BME280;32131;53.454;-6.180;2023-07-31T02:52:44;100045.75;;;16.19;100.00
46430;BME280;32131;53.454;-6.180;2023-07-31T02:55:12;100046.63;;;16.19;100.00
46430;BME280;32131;53.454;-6.180;2023-07-31T02:57:41;100053.53;;;16.21;100.00
46430;BME280;32131;53.454;-6.180;2023-07-31T03:00:10;100044.88;;;16.20;100.00
46430;BME280;32131;53.454;-6.180;2023-07-31T03:02:38;100042.25;;;16.20;100.00
46430;BME280;32131;53.454;-6.180;2023-07-31T03:05:07;100042.25;;;16.20;100.00
46430;BME280;32131;53.454;-6.180;2023-07-31T03:07:37;100041.41;;;16.18;100.00
46430;BME280;32131;53.454;-6.180;2023-07-31T03:10:06;100032.78;;;16.16;100.00
46430;BME280;32131;53.454;-6.180;2023-07-31T03:12:34;100033.69;;;16.15;100.00
46430;BME280;32131;53.454;-6.180;2023-07-31T03:15:03;100033.69;;;16.15;100.00
46430;BME280;32131;53.454;-6.180;2023-07-31T03:17:31;100028.47;;;16.15;100.00
46430;BME280;32131;53.454;-6.180;2023-07-31T03:20:00;100033.69;;;16.15;100.00
46430;BME280;32131;53.454;-6.180;2023-07-31T03:22:30;100025.03;;;16.13;100.00
46430;BME280;32131;53.454;-6.180;2023-07-31T03:25:00;100029.38;;;16.12;100.00
46430;BME280;32131;53.454;-6.180;2023-07-31T03:27:28;100040.66;;;16.13;100.00
46430;BME280;32131;53.454;-6.180;2023-07-31T03:29:56;100035.50;;;16.10;100.00
46430;BME280;32131;53.454;-6.180;2023-07-31T03:32:24;100035.50;;;16.11;100.00
46430;BME280;32131;53.454;-6.180;2023-07-31T03:34:52;100031.13;;;16.12;100.00
46430;BME280;32131;53.454;-6.180;2023-07-31T03:37:20;100034.56;;;16.12;100.00
46430;BME280;32131;53.454;-6.180;2023-07-31T03:39:48;100014.63;;;16.13;100.00
46430;BME280;32131;53.454;-6.180;2023-07-31T03:42:18;100009.41;;;16.13;100.00
46430;BME280;32131;53.454;-6.180;2023-07-31T03:44:46;100023.31;;;16.12;100.00
46430;BME280;32131;53.454;-6.180;2023-07-31T03:47:16;100019.88;;;16.10;100.00
46430;BME280;32131;53.454;-6.180;2023-07-31T03:49:44;100012.94;;;16.09;100.00
46430;BME280;32131;53.454;-6.180;2023-07-31T03:52:12;100005.19;;;16.07;100.00
46430;BME280;32131;53.454;-6.180;2023-07-31T03:54:40;99993.91;;;16.05;100.00
46430;BME280;32131;53.454;-6.180;2023-07-31T03:57:08;99993.16;;;16.00;100.00
46430;BME280;32131;53.454;-6.180;2023-07-31T03:59:37;100002.81;;;15.93;100.00
46430;BME280;32131;53.454;-6.180;2023-07-31T04:02:06;100008.94;;;15.91;100.00
46430;BME280;32131;53.454;-6.180;2023-07-31T04:04:34;100009.78;;;15.91;100.00
46430;BME280;32131;53.454;-6.180;2023-07-31T04:07:03;100009.78;;;15.93;100.00
46430;BME280;32131;53.454;-6.180;2023-07-31T04:09:31;100001.06;;;15.95;100.00
46430;BME280;32131;53.454;-6.180;2023-07-31T04:11:59;100014.03;;;15.97;100.00
46430;BME280;32131;53.454;-6.180;2023-07-31T04:14:27;100017.44;;;16.00;100.00
46430;BME280;32131;53.454;-6.180;2023-07-31T04:16:57;100015.72;;;15.99;100.00
46430;BME280;32131;53.454;-6.180;2023-07-31T04:19:26;100023.47;;;16.02;100.00
46430;BME280;32131;53.454;-6.180;2023-07-31T04:21:54;100016.50;;;16.05;100.00
46430;BME280;32131;53.454;-6.180;2023-07-31T04:24:22;100032.13;;;16.05;100.00
46430;BME280;32131;53.454;-6.180;2023-07-31T04:26:52;100035.63;;;16.03;100.00
46430;BME280;32131;53.454;-6.180;2023-07-31T04:29:20;100033.91;;;16.02;100.00
46430;BME280;32131;53.454;-6.180;2023-07-31T04:31:49;100036.50;;;16.02;100.00
46430;BME280;32131;53.454;-6.180;2023-07-31T04:34:18;100038.25;;;16.00;100.00
46430;BME280;32131;53.454;-6.180;2023-07-31T04:36:49;100029.63;;;16.00;100.00
46430;BME280;32131;53.454;-6.180;2023-07-31T04:39:17;100023.53;;;15.99;100.00
46430;BME280;32131;53.454;-6.180;2023-07-31T04:41:45;100020.88;;;16.02;100.00
46430;BME280;32131;53.454;-6.180;2023-07-31T04:44:14;100010.44;;;16.04;100.00
46430;BME280;32131;53.454;-6.180;2023-07-31T04:46:42;100004.38;;;16.03;100.00
46430;BME280;32131;53.454;-6.180;2023-07-31T04:49:11;100004.41;;;16.02;100.00
46430;BME280;32131;53.454;-6.180;2023-07-31T04:51:41;100013.94;;;16.01;100.00
46430;BME280;32131;53.454;-6.180;2023-07-31T04:54:09;100019.16;;;16.01;100.00
46430;BME280;32131;53.454;-6.180;2023-07-31T04:56:39;100008.66;;;16.06;100.00
46430;BME280;32131;53.454;-6.180;2023-07-31T04:59:07;100014.63;;;16.13;100.00
46430;BME280;32131;53.454;-6.180;2023-07-31T05:01:35;100005.78;;;16.20;100.00
46430;BME280;32131;53.454;-6.180;2023-07-31T05:04:04;100003.94;;;16.27;100.00
46430;BME280;32131;53.454;-6.180;2023-07-31T05:06:32;100014.28;;;16.31;100.00
46430;BME280;32131;53.454;-6.180;2023-07-31T05:09:02;100023.81;;;16.31;100.00
46430;BME280;32131;53.454;-6.180;2023-07-31T05:11:30;100022.16;;;16.27;100.00
46430;BME280;32131;53.454;-6.180;2023-07-31T05:13:58;100019.53;;;16.28;100.00
46430;BME280;32131;53.454;-6.180;2023-07-31T05:16:29;100021.28;;;16.26;100.00
46430;BME280;32131;53.454;-6.180;2023-07-31T05:18:58;100022.31;;;16.19;100.00
46430;BME280;32131;53.454;-6.180;2023-07-31T05:21:26;100029.38;;;16.12;100.00
46430;BME280;32131;53.454;-6.180;2023-07-31T05:23:54;100025.16;;;16.07;100.00
46430;BME280;32131;53.454;-6.180;2023-07-31T05:26:24;100016.50;;;16.05;100.00
46430;BME280;32131;53.454;-6.180;2023-07-31T05:28:52;100010.41;;;16.06;100.00
46430;BME280;32131;53.454;-6.180;2023-07-31T05:31:20;100009.53;;;16.07;100.00
46430;BME280;32131;53.454;-6.180;2023-07-31T05:33:49;100015.63;;;16.04;100.00
46430;BME280;32131;53.454;-6.180;2023-07-31T05:36:17;100013.06;;;16.02;100.00
46430;BME280;32131;53.454;-6.180;2023-07-31T05:38:46;100008.81;;;15.98;100.00
46430;BME280;32131;53.454;-6.180;2023-07-31T05:41:14;100009.75;;;15.94;100.00
46430;BME280;32131;53.454;-6.180;2023-07-31T05:43:45;100012.41;;;15.91;100.00
46430;BME280;32131;53.454;-6.180;2023-07-31T05:46:14;100013.31;;;15.90;100.00
46430;BME280;32131;53.454;-6.180;2023-07-31T05:48:43;100009.00;;;15.89;100.00
46430;BME280;32131;53.454;-6.180;2023-07-31T05:51:11;100002.06;;;15.88;100.00
46430;BME280;32131;53.454;-6.180;2023-07-31T05:53:39;99995.13;;;15.87;100.00
46430;BME280;32131;53.454;-6.180;2023-07-31T05:56:08;99995.97;;;15.87;100.00
46430;BME280;32131;53.454;-6.180;2023-07-31T05:58:36;100012.44;;;15.90;100.00
46430;BME280;32131;53.454;-6.180;2023-07-31T06:01:06;100006.34;;;15.91;100.00
46430;BME280;32131;53.454;-6.180;2023-07-31T06:03:34;100007.22;;;15.90;100.00
46430;BME280;32131;53.454;-6.180;2023-07-31T06:06:03;100005.53;;;15.87;100.00
46430;BME280;32131;53.454;-6.180;2023-07-31T06:08:31;100006.44;;;15.86;100.00
46430;BME280;32131;53.454;-6.180;2023-07-31T06:10:59;100009.03;;;15.86;100.00
46430;BME280;32131;53.454;-6.180;2023-07-31T06:13:27;99999.47;;;15.88;100.00
46430;BME280;32131;53.454;-6.180;2023-07-31T06:15:55;99989.03;;;15.88;100.00
46430;BME280;32131;53.454;-6.180;2023-07-31T06:18:25;99985.66;;;15.84;100.00
46430;BME280;32131;53.454;-6.180;2023-07-31T06:20:53;99984.81;;;15.81;100.00
46430;BME280;32131;53.454;-6.180;2023-07-31T06:23:23;99986.53;;;15.80;100.00
46430;BME280;32131;53.454;-6.180;2023-07-31T06:25:51;99984.78;;;15.82;100.00
46430;BME280;32131;53.454;-6.180;2023-07-31T06:28:21;99988.22;;;15.83;100.00
46430;BME280;32131;53.454;-6.180;2023-07-31T06:30:49;99980.41;;;15.83;100.00
46430;BME280;32131;53.454;-6.180;2023-07-31T06:33:18;99979.56;;;15.82;100.00
46430;BME280;32131;53.454;-6.180;2023-07-31T06:35:48;99989.97;;;15.84;100.00
46430;BME280;32131;53.454;-6.180;2023-07-31T06:38:19;99977.81;;;15.83;100.00
46430;BME280;32131;53.454;-6.180;2023-07-31T06:40:56;100001.22;;;15.83;100.00
46430;BME280;32131;53.454;-6.180;2023-07-31T06:43:24;99988.25;;;15.81;100.00
46430;BME280;32131;53.454;-6.180;2023-07-31T06:45:56;100003.00;;;15.84;100.00
46430;BME280;32131;53.454;-6.180;2023-07-31T06:48:27;100011.63;;;15.86;100.00
46430;BME280;32131;53.454;-6.180;2023-07-31T06:50:57;100032.41;;;15.87;100.00
46430;BME280;32131;53.454;-6.180;2023-07-31T06:53:25;100045.44;;;15.87;100.00
46430;BME280;32131;53.454;-6.180;2023-07-31T06:55:53;100053.25;;;15.87;100.00
46430;BME280;32131;53.454;-6.180;2023-07-31T06:58:21;100058.50;;;15.86;100.00
46430;BME280;32131;53.454;-6.180;2023-07-31T07:00:52;100049.75;;;15.88;100.00
46430;BME280;32131;53.454;-6.180;2023-07-31T07:03:20;100039.34;;;15.90;100.00
46430;BME280;32131;53.454;-6.180;2023-07-31T07:05:48;100025.41;;;15.91;100.00
46430;BME280;32131;53.454;-6.180;2023-07-31T07:08:18;100022.00;;;15.89;100.00
46430;BME280;32131;53.454;-6.180;2023-07-31T07:10:46;100021.13;;;15.90;100.00
46430;BME280;32131;53.454;-6.180;2023-07-31T07:13:15;100001.97;;;15.91;100.00
46430;BME280;32131;53.454;-6.180;2023-07-31T07:15:48;100010.66;;;15.92;100.00
46430;BME280;32131;53.454;-6.180;2023-07-31T07:18:19;100000.25;;;15.92;100.00
46430;BME280;32131;53.454;-6.180;2023-07-31T07:20:52;100002.81;;;15.93;100.00
46430;BME280;32131;53.454;-6.180;2023-07-31T07:23:23;100001.94;;;15.94;100.00
46430;BME280;32131;53.454;-6.180;2023-07-31T07:25:55;100006.31;;;15.92;100.00
46430;BME280;32131;53.454;-6.180;2023-07-31T07:28:37;99998.50;;;15.92;100.00
46430;BME280;32131;53.454;-6.180;2023-07-31T07:31:19;100005.53;;;15.87;100.00
46430;BME280;32131;53.454;-6.180;2023-07-31T07:34:08;100005.50;;;15.90;100.00
46430;BME280;32131;53.454;-6.180;2023-07-31T07:37:13;100002.91;;;15.90;100.00
46430;BME280;32131;53.454;-6.180;2023-07-31T07:40:33;100002.91;;;15.90;100.00
46430;BME280;32131;53.454;-6.180;2023-07-31T07:46:51;100004.53;;;15.94;100.00
46430;BME280;32131;53.454;-6.180;2023-07-31T07:49:37;99994.13;;;15.94;100.00
46430;BME280;32131;53.454;-6.180;2023-07-31T07:52:32;99984.59;;;15.93;100.00
46430;BME280;32131;53.454;-6.180;2023-07-31T07:55:50;99985.41;;;15.98;100.00
46430;BME280;32131;53.454;-6.180;2023-07-31T07:58:53;99975.56;;;16.13;100.00
46430;BME280;32131;53.454;-6.180;2023-07-31T08:01:48;99975.47;;;16.17;100.00
46430;BME280;32131;53.454;-6.180;2023-07-31T08:04:16;99963.28;;;16.18;100.00
46430;BME280;32131;53.454;-6.180;2023-07-31T08:06:44;99971.09;;;16.18;100.00
46430;BME280;32131;53.454;-6.180;2023-07-31T08:09:12;99977.38;;;16.09;100.00
46430;BME280;32131;53.454;-6.180;2023-07-31T08:11:42;99966.16;;;16.04;100.00
46430;BME280;32131;53.454;-6.180;2023-07-31T08:14:13;99968.75;;;16.04;100.00
46430;BME280;32131;53.454;-6.180;2023-07-31T08:16:42;99986.97;;;16.06;100.00
46430;BME280;32131;53.454;-6.180;2023-07-31T08:19:11;99993.03;;;16.06;100.00
46430;BME280;32131;53.454;-6.180;2023-07-31T08:21:39;100002.47;;;16.12;100.00
46430;BME280;32131;53.454;-6.180;2023-07-31T08:24:07;99999.00;;;16.13;100.00
46430;BME280;32131;53.454;-6.180;2023-07-31T08:26:35;100017.97;;;16.18;100.00
46430;BME280;32131;53.454;-6.180;2023-07-31T08:29:06;100031.00;;;16.19;100.00
46430;BME280;32131;53.454;-6.180;2023-07-31T08:31:35;100043.94;;;16.24;100.00
46430;BME280;32131;53.454;-6.180;2023-07-31T08:34:03;100045.69;;;16.22;100.00
46430;BME280;32131;53.454;-6.180;2023-07-31T08:36:31;100048.25;;;16.24;100.00
46430;BME280;32131;53.454;-6.180;2023-07-31T08:39:02;100042.97;;;16.28;100.00
46430;BME280;32131;53.454;-6.180;2023-07-31T08:41:30;100048.13;;;16.30;100.00
46430;BME280;32131;53.454;-6.180;2023-07-31T08:43:59;100044.69;;;16.29;100.00
46430;BME280;32131;53.454;-6.180;2023-07-31T08:46:30;100044.66;;;16.31;100.00
46430;BME280;32131;53.454;-6.180;2023-07-31T08:48:58;100045.53;;;16.30;100.00
46430;BME280;32131;53.454;-6.180;2023-07-31T08:51:27;100031.56;;;16.34;99.15
46430;BME280;32131;53.454;-6.180;2023-07-31T08:53:56;100028.88;;;16.39;99.01
46430;BME280;32131;53.454;-6.180;2023-07-31T08:56:25;100023.59;;;16.42;98.88
46430;BME280;32131;53.454;-6.180;2023-07-31T08:58:55;100010.66;;;16.39;98.71
46430;BME280;32131;53.454;-6.180;2023-07-31T09:01:30;100007.25;;;16.35;98.47
46430;BME280;32131;53.454;-6.180;2023-07-31T09:04:04;99998.59;;;16.33;98.39
46430;BME280;32131;53.454;-6.180;2023-07-31T09:07:04;99989.75;;;16.40;98.17
46430;BME280;32131;53.454;-6.180;2023-07-31T09:09:33;99992.41;;;16.39;97.77
46430;BME280;32131;53.454;-6.180;2023-07-31T09:12:04;99983.63;;;16.43;97.87
46430;BME280;32131;53.454;-6.180;2023-07-31T09:14:35;99982.59;;;16.50;97.35
46430;BME280;32131;53.454;-6.180;2023-07-31T09:17:07;99984.22;;;16.57;97.32
46430;BME280;32131;53.454;-6.180;2023-07-31T09:19:36;99977.28;;;16.56;96.94
46430;BME280;32131;53.454;-6.180;2023-07-31T09:22:05;99983.31;;;16.58;97.03
46430;BME280;32131;53.454;-6.180;2023-07-31T09:24:34;99984.13;;;16.60;97.00
46430;BME280;32131;53.454;-6.180;2023-07-31T09:27:03;99992.81;;;16.61;96.93
46430;BME280;32131;53.454;-6.180;2023-07-31T09:29:33;99999.84;;;16.57;96.61
46430;BME280;32131;53.454;-6.180;2023-07-31T09:32:03;100001.75;;;16.49;96.20
46430;BME280;32131;53.454;-6.180;2023-07-31T09:34:39;100008.78;;;16.44;96.94
46430;BME280;32131;53.454;-6.180;2023-07-31T09:37:11;100019.41;;;16.34;96.79
46430;BME280;32131;53.454;-6.180;2023-07-31T09:39:48;100018.69;;;16.26;97.38
46430;BME280;32131;53.454;-6.180;2023-07-31T09:42:25;100018.59;;;16.31;97.68
46430;BME280;32131;53.454;-6.180;2023-07-31T09:45:07;100029.78;;;16.38;97.80
46430;BME280;32131;53.454;-6.180;2023-07-31T09:47:37;100024.44;;;16.44;97.53
46430;BME280;32131;53.454;-6.180;2023-07-31T09:50:11;100031.31;;;16.46;97.90
46430;BME280;32131;53.454;-6.180;2023-07-31T09:52:39;100027.88;;;16.46;97.82
46430;BME280;32131;53.454;-6.180;2023-07-31T09:55:08;100024.34;;;16.48;97.93
46430;BME280;32131;53.454;-6.180;2023-07-31T09:57:37;100014.84;;;16.46;97.90
46430;BME280;32131;53.454;-6.180;2023-07-31T10:00:10;100027.13;;;16.39;97.04
46430;BME280;32131;53.454;-6.180;2023-07-31T10:02:39;100016.88;;;16.31;96.83
46430;BME280;32131;53.454;-6.180;2023-07-31T10:05:15;100014.19;;;16.34;97.14
46430;BME280;32131;53.454;-6.180;2023-07-31T10:07:51;100015.81;;;16.40;97.22
46430;BME280;32131;53.454;-6.180;2023-07-31T10:10:22;100014.09;;;16.41;96.71
46430;BME280;32131;53.454;-6.180;2023-07-31T10:12:52;100005.50;;;16.35;96.55
46430;BME280;32131;53.454;-6.180;2023-07-31T10:15:26;99998.63;;;16.31;96.57
46430;BME280;32131;53.454;-6.180;2023-07-31T10:17:58;99991.72;;;16.29;96.75
46430;BME280;32131;53.454;-6.180;2023-07-31T10:21:11;99991.75;;;16.27;97.47
46430;BME280;32131;53.454;-6.180;2023-07-31T10:23:46;99995.25;;;16.26;96.88
46430;BME280;32131;53.454;-6.180;2023-07-31T10:26:17;99994.31;;;16.29;97.05
46430;BME280;32131;53.454;-6.180;2023-07-31T10:28:48;99998.69;;;16.28;97.34
46430;BME280;32131;53.454;-6.180;2023-07-31T10:31:21;99993.56;;;16.24;97.76
46430;BME280;32131;53.454;-6.180;2023-07-31T10:33:50;99991.88;;;16.21;98.03
46430;BME280;32131;53.454;-6.180;2023-07-31T10:36:20;99985.06;;;16.15;98.48
46430;BME280;32131;53.454;-6.180;2023-07-31T10:38:49;99983.50;;;16.07;99.18
46430;BME280;32131;53.454;-6.180;2023-07-31T10:41:18;99985.31;;;16.01;99.93
46430;BME280;32131;53.454;-6.180;2023-07-31T10:43:48;99993.19;;;15.98;100.00
46430;BME280;32131;53.454;-6.180;2023-07-31T10:46:17;99997.50;;;15.99;100.00
46430;BME280;32131;53.454;-6.180;2023-07-31T10:48:57;100001.81;;;16.02;100.00
46430;BME280;32131;53.454;-6.180;2023-07-31T10:51:34;100000.06;;;16.02;100.00
46430;BME280;32131;53.454;-6.180;2023-07-31T10:54:15;99995.63;;;16.06;100.00
46430;BME280;32131;53.454;-6.180;2023-07-31T10:56:46;100004.38;;;16.03;100.00
46430;BME280;32131;53.454;-6.180;2023-07-31T10:59:16;99989.69;;;16.01;100.00
46430;BME280;32131;53.454;-6.180;2023-07-31T11:01:52;99992.25;;;16.02;100.00
46430;BME280;32131;53.454;-6.180;2023-07-31T11:04:27;99993.97;;;16.03;100.00
46430;BME280;32131;53.454;-6.180;2023-07-31T11:07:01;99991.09;;;16.17;100.00
46430;BME280;32131;53.454;-6.180;2023-07-31T11:09:38;99985.53;;;16.34;100.00
46430;BME280;32131;53.454;-6.180;2023-07-31T11:12:07;99972.75;;;16.64;100.00
46430;BME280;32131;53.454;-6.180;2023-07-31T11:14:39;99966.16;;;16.87;100.00
46430;BME280;32131;53.454;-6.180;2023-07-31T11:17:10;99971.94;;;17.02;100.00
46430;BME280;32131;53.454;-6.180;2023-07-31T11:19:38;99977.16;;;17.03;100.00
46430;BME280;32131;53.454;-6.180;2023-07-31T11:22:08;99971.16;;;17.00;99.38
46430;BME280;32131;53.454;-6.180;2023-07-31T11:24:37;99972.72;;;17.05;99.50
46430;BME280;32131;53.454;-6.180;2023-07-31T11:27:10;99969.44;;;16.97;98.27
46430;BME280;32131;53.454;-6.180;2023-07-31T11:29:38;99966.63;;;17.06;97.99
46430;BME280;32131;53.454;-6.180;2023-07-31T11:32:15;99976.56;;;17.26;97.08
46430;BME280;32131;53.454;-6.180;2023-07-31T11:34:51;99974.19;;;17.53;96.36
46430;BME280;32131;53.454;-6.180;2023-07-31T11:37:23;99976.19;;;17.76;95.02
46430;BME280;32131;53.454;-6.180;2023-07-31T11:40:00;99965.41;;;17.90;93.52
46430;BME280;32131;53.454;-6.180;2023-07-31T11:42:29;99973.25;;;17.89;92.63
46430;BME280;32131;53.454;-6.180;2023-07-31T11:44:57;99967.56;;;18.07;92.70
46430;BME280;32131;53.454;-6.180;2023-07-31T11:47:26;99963.41;;;18.32;92.09
46430;BME280;32131;53.454;-6.180;2023-07-31T11:49:55;99957.03;;;18.41;90.19
46430;BME280;32131;53.454;-6.180;2023-07-31T11:52:26;99956.56;;;18.56;89.35
46430;BME280;32131;53.454;-6.180;2023-07-31T11:54:55;99960.66;;;18.95;88.71
46430;BME280;32131;53.454;-6.180;2023-07-31T11:57:28;99949.31;;;19.23;86.87
46430;BME280;32131;53.454;-6.180;2023-07-31T12:00:00;99948.91;;;19.60;85.04
46430;BME280;32131;53.454;-6.180;2023-07-31T12:02:30;99948.84;;;19.89;84.62
46430;BME280;32131;53.454;-6.180;2023-07-31T12:04:59;99956.47;;;19.95;82.58
46430;BME280;32131;53.454;-6.180;2023-07-31T12:07:43;99952.75;;;19.50;83.22
46430;BME280;32131;53.454;-6.180;2023-07-31T12:10:23;99960.28;;;19.07;84.92
46430;BME280;32131;53.454;-6.180;2023-07-31T12:13:02;99958.66;;;19.03;85.69
46430;BME280;32131;53.454;-6.180;2023-07-31T12:15:38;99953.38;;;19.31;84.98
46430;BME280;32131;53.454;-6.180;2023-07-31T12:18:09;99951.78;;;19.53;84.43
46430;BME280;32131;53.454;-6.180;2023-07-31T12:20:42;99943.91;;;19.54;81.21
46430;BME280;32131;53.454;-6.180;2023-07-31T12:23:20;99935.75;;;19.62;80.92
46430;BME280;32131;53.454;-6.180;2023-07-31T12:26:01;99932.88;;;19.95;80.19
46430;BME280;32131;53.454;-6.180;2023-07-31T12:28:30;99919.56;;;20.25;79.20
46430;BME280;32131;53.454;-6.180;2023-07-31T12:31:00;99917.28;;;20.62;78.18
46430;BME280;32131;53.454;-6.180;2023-07-31T12:33:31;99919.41;;;20.76;77.22
46430;BME280;32131;53.454;-6.180;2023-07-31T12:36:10;99920.97;;;20.80;75.06
46430;BME280;32131;53.454;-6.180;2023-07-31T12:38:42;99915.97;;;20.73;74.54
46430;BME280;32131;53.454;-6.180;2023-07-31T12:41:17;99928.03;;;20.55;74.01
46430;BME280;32131;53.454;-6.180;2023-07-31T12:43:46;99927.41;;;20.49;74.33
46430;BME280;32131;53.454;-6.180;2023-07-31T12:46:16;99920.09;;;20.57;73.71
46430;BME280;32131;53.454;-6.180;2023-07-31T12:48:45;99915.63;;;20.83;72.96
46430;BME280;32131;53.454;-6.180;2023-07-31T12:51:14;99909.78;;;21.40;71.19
46430;BME280;32131;53.454;-6.180;2023-07-31T12:53:43;99923.91;;;21.78;68.87
46430;BME280;32131;53.454;-6.180;2023-07-31T12:56:18;99913.97;;;21.85;67.92
46430;BME280;32131;53.454;-6.180;2023-07-31T12:58:46;99909.78;;;21.81;67.59